Time;durP1;ratioP1;P1;durP2;ratioP2;P2;SDS_P1;SDS_P2;PMS_P1;PMS_P2;Temp;Humidity;BMP_temperature;BMP_pressure;BME280_temperature;BME280_humidity;BME280_pressure;Samples;Min_cycle;Max_cycle;Signal;HPM_P1;HPM_P2
2024/02/12 05:46:57;;;;;;;8.90;6.70;;;;;;;8.45;100.00;98083.16;102043;1269;120576;-74
2024/02/12 05:49:28;;;;;;;8.00;6.70;;;;;;;8.44;100.00;98084.23;102078;1271;110772;-76
2024/02/12 05:51:57;;;;;;;9.80;7.10;;;;;;;8.49;100.00;98093.67;102137;1270;107501;-76
2024/02/12 05:54:23;;;;;;;8.50;6.70;;;;;;;8.52;100.00;98093.99;102197;1273;138599;-76
2024/02/12 05:56:51;;;;;;;7.30;6.20;;;;;;;8.55;100.00;98097.61;102232;1273;108834;-76
2024/02/12 05:59:18;;;;;;;7.70;6.40;;;;;;;8.56;100.00;98096.04;102009;1273;139287;-76
2024/02/12 06:01:45;;;;;;;9.80;6.20;;;;;;;8.57;100.00;98102.22;102294;1270;110687;-75
2024/02/12 06:04:12;;;;;;;6.30;5.70;;;;;;;8.58;100.00;98106.10;102258;1268;107661;-76
2024/02/12 06:06:42;;;;;;;7.20;6.10;;;;;;;8.61;100.00;98110.08;102162;1270;139005;-76
2024/02/12 06:09:10;;;;;;;8.20;7.20;;;;;;;8.62;100.00;98107.63;102257;1272;108553;-76
2024/02/12 06:11:37;;;;;;;7.80;6.70;;;;;;;8.63;100.00;98109.52;102179;1270;138794;-74
2024/02/12 06:14:04;;;;;;;6.90;6.20;;;;;;;8.61;100.00;98113.39;102151;1272;110793;-76
2024/02/12 06:16:31;;;;;;;6.40;5.70;;;;;;;8.63;100.00;98112.95;102069;1273;138785;-77
2024/02/12 06:19:01;;;;;;;6.10;5.50;;;;;;;8.60;100.00;98121.75;102203;1270;98466;-75
2024/02/12 06:21:28;;;;;;;7.70;5.80;;;;;;;8.59;100.00;98112.98;102027;1270;107730;-67
2024/02/12 06:23:55;;;;;;;7.60;4.80;;;;;;;8.61;100.00;98117.56;102136;1270;138769;-67
2024/02/12 06:26:22;;;;;;;6.10;5.10;;;;;;;8.70;100.00;98120.46;102185;1273;111391;-67
2024/02/12 06:28:52;;;;;;;5.70;5.20;;;;;;;8.76;100.00;98115.78;102146;1269;139267;-72
2024/02/12 06:31:19;;;;;;;6.00;4.80;;;;;;;8.75;100.00;98118.59;102243;1272;97834;-73
2024/02/12 06:33:46;;;;;;;4.70;4.20;;;;;;;8.75;100.00;98125.87;102217;1270;108983;-73
2024/02/12 06:36:13;;;;;;;4.30;3.70;;;;;;;8.72;100.00;98123.48;102084;1272;138608;-74
2024/02/12 06:38:40;;;;;;;5.00;3.90;;;;;;;8.69;100.00;98122.83;102316;1270;110731;-77
2024/02/12 06:41:08;;;;;;;4.30;3.60;;;;;;;8.68;100.00;98120.24;102195;1270;139112;-77
2024/02/12 06:43:36;;;;;;;5.60;4.10;;;;;;;8.70;100.00;98128.95;102298;1269;98492;-77
2024/02/12 06:46:03;;;;;;;10.20;4.60;;;;;;;8.72;100.00;98125.23;102192;1270;107077;-75
2024/02/12 06:48:29;;;;;;;4.90;4.30;;;;;;;8.76;100.00;98130.52;102021;1276;138562;-82
2024/02/12 06:51:00;;;;;;;4.70;4.20;;;;;;;8.75;100.00;98127.61;101940;1270;113112;-78
2024/02/12 06:53:28;;;;;;;5.00;3.40;;;;;;;8.79;100.00;98129.66;101831;1276;138882;-75
2024/02/12 06:55:56;;;;;;;6.00;4.00;;;;;;;8.81;100.00;98130.44;102026;1270;97841;-76
2024/02/12 06:58:23;;;;;;;5.10;3.60;;;;;;;8.83;100.00;98129.66;101928;1270;138891;-76
2024/02/12 07:00:54;;;;;;;4.60;3.80;;;;;;;8.84;100.00;98128.35;101884;1270;97698;-79
2024/02/12 07:03:21;;;;;;;4.40;3.40;;;;;;;8.88;100.00;98127.77;101831;1272;112169;-73
2024/02/12 07:05:49;;;;;;;4.50;3.60;;;;;;;8.92;100.00;98132.51;101815;1272;138950;-72
2024/02/12 07:08:18;;;;;;;7.10;4.30;;;;;;;8.95;100.00;98135.80;102116;1270;98357;-75
2024/02/12 07:10:46;;;;;;;6.50;4.90;;;;;;;9.01;100.00;98139.27;101905;1273;138000;-74
2024/02/12 07:13:13;;;;;;;5.00;4.10;;;;;;;9.04;100.00;98140.33;101920;1270;97815;-74
2024/02/12 07:15:41;;;;;;;3.80;3.40;;;;;;;9.07;100.00;98142.73;101939;1275;110503;-73
2024/02/12 07:18:08;;;;;;;3.60;3.30;;;;;;;9.04;100.00;98147.59;101841;1274;139220;-75
2024/02/12 07:20:36;;;;;;;4.30;3.40;;;;;;;8.98;100.00;98143.59;102015;1270;97890;-73
2024/02/12 07:23:03;;;;;;;3.50;3.20;;;;;;;8.98;100.00;98150.04;101800;1270;139287;-72
2024/02/12 07:25:30;;;;;;;3.90;3.30;;;;;;;8.96;100.00;98150.13;102051;1272;98513;-74
2024/02/12 07:27:58;;;;;;;6.10;3.40;;;;;;;8.96;100.00;98154.65;101980;1270;110327;-74
2024/02/12 07:30:25;;;;;;;4.60;3.30;;;;;;;8.95;100.00;98151.56;101974;1270;139060;-74
2024/02/12 07:32:52;;;;;;;3.90;3.10;;;;;;;8.96;100.00;98151.32;102096;1272;99516;-73
2024/02/12 07:35:19;;;;;;;4.00;3.50;;;;;;;8.99;100.00;98158.98;101997;1270;138521;-75
2024/02/12 07:37:49;;;;;;;3.90;3.20;;;;;;;8.96;100.00;98154.45;102010;1275;97865;-75
2024/02/12 07:40:16;;;;;;;3.70;3.30;;;;;;;8.88;100.00;98161.15;102036;1271;112040;-72
2024/02/12 07:42:44;;;;;;;4.50;3.00;;;;;;;8.86;100.00;98166.70;102107;1270;106401;-73
2024/02/12 07:45:13;;;;;;;4.70;2.90;;;;;;;8.84;100.00;98168.36;102060;1275;98367;-73
2024/02/12 07:47:41;;;;;;;4.20;3.20;;;;;;;8.83;100.00;98162.86;101953;1270;138739;-74
2024/02/12 07:50:10;;;;;;;4.70;3.10;;;;;;;8.86;100.00;98172.75;102219;1273;97812;-73
2024/02/12 07:52:38;;;;;;;3.40;2.90;;;;;;;8.86;100.00;98172.73;101934;1273;138793;-72
2024/02/12 07:55:05;;;;;;;3.10;2.80;;;;;;;8.87;100.00;98177.17;101987;1273;107045;-71
2024/02/12 07:57:32;;;;;;;4.20;2.70;;;;;;;8.85;100.00;98180.77;102187;1273;97859;-70
2024/02/12 08:00:00;;;;;;;4.70;2.30;;;;;;;8.85;100.00;98182.20;102071;1270;138396;-73
2024/02/12 08:02:30;;;;;;;5.00;2.40;;;;;;;8.87;100.00;98182.22;102011;1270;97957;-72
2024/02/12 08:04:57;;;;;;;4.50;3.10;;;;;;;8.90;100.00;98180.12;101887;1269;139734;-71
2024/02/12 08:07:24;;;;;;;3.10;2.60;;;;;;;8.91;100.00;98182.84;102068;1273;106547;-72
2024/02/12 08:10:10;;;;;;;3.30;2.80;;;;;;;8.90;100.00;98187.21;102204;1269;97876;-71
2024/02/12 08:12:37;;;;;;;3.00;2.70;;;;;;;8.86;100.00;98185.56;102041;1273;138613;-71
2024/02/12 08:15:06;;;;;;;4.20;2.80;;;;;;;8.85;100.00;98190.30;102084;1270;97707;-70
2024/02/12 08:17:33;;;;;;;3.60;2.80;;;;;;;8.87;100.00;98187.98;101982;1270;138418;-71
2024/02/12 08:20:03;;;;;;;5.10;2.50;;;;;;;8.86;100.00;98190.08;102096;1273;107020;-71
2024/02/12 08:22:30;;;;;;;5.30;2.90;;;;;;;8.84;100.00;98197.64;101950;1270;138819;-71
2024/02/12 08:24:57;;;;;;;4.90;2.80;;;;;;;8.84;100.00;98198.52;102119;1270;106433;-73
2024/02/12 08:27:26;;;;;;;2.80;2.50;;;;;;;8.86;100.00;98201.36;102125;1270;97850;-72
2024/02/12 08:29:53;;;;;;;3.60;2.90;;;;;;;8.86;100.00;98201.51;101881;1273;140310;-73
2024/02/12 08:32:22;;;;;;;4.30;2.70;;;;;;;8.83;100.00;98207.92;102010;1269;106463;-71
2024/02/12 08:34:51;;;;;;;3.80;2.40;;;;;;;8.82;100.00;98206.96;102022;1272;140151;-71
2024/02/12 08:37:18;;;;;;;4.30;2.60;;;;;;;8.80;100.00;98208.10;102149;1270;107560;-72
2024/02/12 08:39:47;;;;;;;4.90;3.00;;;;;;;8.79;100.00;98211.79;102023;1270;98573;-71
2024/02/12 08:42:15;;;;;;;3.00;2.50;;;;;;;8.75;100.00;98214.08;101933;1273;138646;-70
2024/02/12 08:44:44;;;;;;;5.10;2.60;;;;;;;8.74;100.00;98216.41;102045;1273;107965;-72
2024/02/12 08:47:11;;;;;;;3.30;2.70;;;;;;;8.75;100.00;98216.87;101883;1270;139180;-70
2024/02/12 08:49:38;;;;;;;3.30;2.80;;;;;;;8.77;100.00;98221.96;102045;1271;108399;-73
2024/02/12 08:52:05;;;;;;;3.60;2.80;;;;;;;8.79;100.00;98227.58;102105;1273;97823;-71
2024/02/12 08:54:33;;;;;;;4.60;2.90;;;;;;;8.73;100.00;98225.30;101962;1270;140027;-72
2024/02/12 08:57:03;;;;;;;4.40;3.00;;;;;;;8.72;100.00;98238.20;102113;1273;107235;-72
2024/02/12 08:59:31;;;;;;;5.90;2.80;;;;;;;8.72;100.00;98237.30;102114;1269;139343;-72
2024/02/12 09:01:58;;;;;;;3.20;2.60;;;;;;;8.71;100.00;98240.31;102213;1272;107191;-72
2024/02/12 09:04:25;;;;;;;3.10;2.70;;;;;;;8.72;100.00;98242.70;102032;1270;138938;-72
2024/02/12 09:06:53;;;;;;;3.50;2.70;;;;;;;8.74;100.00;98240.32;102184;1270;110727;-71
2024/02/12 09:09:20;;;;;;;3.10;2.80;;;;;;;8.76;100.00;98240.91;102150;1273;107903;-71
2024/02/12 09:11:47;;;;;;;2.70;2.50;;;;;;;8.82;100.00;98251.69;101936;1276;138963;-72
2024/02/12 09:14:16;;;;;;;4.20;2.90;;;;;;;8.81;100.00;98246.54;102136;1270;109257;-72
2024/02/12 09:16:44;;;;;;;5.10;2.80;;;;;;;8.80;100.00;98252.11;101940;1269;138961;-71
2024/02/12 09:19:11;;;;;;;3.20;2.70;;;;;;;8.80;100.00;98254.56;102177;1270;110200;-73
2024/02/12 09:21:41;;;;;;;4.00;2.50;;;;;;;8.81;100.00;98258.15;101846;1275;107702;-71
2024/02/12 09:24:09;;;;;;;2.80;2.50;;;;;;;8.79;100.00;98260.11;102011;1270;138654;-73
2024/02/12 09:26:37;;;;;;;3.00;2.70;;;;;;;8.79;100.00;98264.61;102102;1270;108264;-72
2024/02/12 09:29:04;;;;;;;4.90;2.80;;;;;;;8.81;100.00;98261.41;102032;1273;140501;-74
2024/02/12 09:31:33;;;;;;;3.20;2.40;;;;;;;8.84;100.00;98259.71;102082;1270;111315;-73
2024/02/12 09:34:02;;;;;;;4.30;3.30;;;;;;;8.92;100.00;98265.62;102081;1273;106111;-69
2024/02/12 09:36:30;;;;;;;3.80;2.80;;;;;;;8.94;100.00;98267.23;102011;1273;138008;-75
2024/02/12 09:38:57;;;;;;;4.00;2.80;;;;;;;8.95;100.00;98269.25;102135;1270;108274;-73
2024/02/12 09:41:28;;;;;;;3.60;2.80;;;;;;;8.98;100.00;98272.24;102208;1273;137894;-76
2024/02/12 09:43:56;;;;;;;4.20;2.90;;;;;;;9.03;100.00;98274.73;102290;1270;111071;-76
2024/02/12 09:46:23;;;;;;;3.70;2.40;;;;;;;9.03;100.00;98278.16;102143;1270;143069;-75
2024/02/12 09:48:51;;;;;;;2.60;2.40;;;;;;;9.00;100.00;98281.47;102084;1268;98012;-75
2024/02/12 09:51:23;;;;;;;3.80;2.40;;;;;;;8.98;100.00;98286.81;102031;1270;108266;-74
2024/02/12 09:53:55;;;;;;;3.20;2.70;;;;;;;8.96;100.00;98277.52;102008;1269;139690;-74
2024/02/12 09:56:23;;;;;;;3.40;2.60;;;;;;;9.01;100.00;98284.39;102118;1270;110844;-75
2024/02/12 09:58:51;;;;;;;3.10;2.30;;;;;;;9.05;100.00;98288.97;102052;1270;139629;-74
2024/02/12 10:01:18;;;;;;;4.60;3.20;;;;;;;9.11;100.00;98289.02;102194;1273;97860;-74
2024/02/12 10:03:46;;;;;;;3.00;2.70;;;;;;;9.18;100.00;98293.30;102108;1270;107121;-75
2024/02/12 10:06:13;;;;;;;6.00;3.10;;;;;;;9.25;100.00;98290.98;101860;1270;138521;-74
2024/02/12 10:08:41;;;;;;;6.50;3.20;;;;;;;9.33;100.00;98295.02;102194;1270;110688;-74
2024/02/12 10:11:08;;;;;;;3.30;2.60;;;;;;;9.31;100.00;98298.06;102115;1273;139606;-75
2024/02/12 10:13:36;;;;;;;4.10;3.10;;;;;;;9.25;99.80;98298.23;102196;1270;98337;-74
2024/02/12 10:16:04;;;;;;;3.20;2.70;;;;;;;9.20;100.00;98299.58;102165;1270;108528;-76
2024/02/12 10:18:31;;;;;;;3.00;2.70;;;;;;;9.17;100.00;98299.23;102079;1270;138493;-76
2024/02/12 10:20:58;;;;;;;4.40;3.50;;;;;;;9.18;100.00;98294.34;102127;1270;111764;-73
2024/02/12 10:23:25;;;;;;;4.70;3.30;;;;;;;9.17;100.00;98297.31;102000;1273;138615;-74
2024/02/12 10:25:53;;;;;;;6.20;2.90;;;;;;;9.19;100.00;98297.59;102136;1270;96324;-75
2024/02/12 10:28:22;;;;;;;3.30;2.80;;;;;;;9.21;100.00;98298.99;102149;1270;138672;-75
2024/02/12 10:30:49;;;;;;;5.10;2.90;;;;;;;9.26;100.00;98298.17;102184;1270;97948;-75
2024/02/12 10:33:17;;;;;;;3.30;3.00;;;;;;;9.31;100.00;98296.67;102220;1273;111495;-76
2024/02/12 10:35:48;;;;;;;4.80;3.10;;;;;;;9.37;100.00;98300.52;102093;1272;138509;-73
2024/02/12 10:38:17;;;;;;;4.60;3.80;;;;;;;9.40;99.97;98298.23;102125;1270;97963;-75
2024/02/12 10:41:01;;;;;;;3.90;3.40;;;;;;;9.42;100.00;98302.48;102097;1269;137945;-76
2024/02/12 10:43:31;;;;;;;4.20;3.80;;;;;;;9.43;99.85;98301.50;102126;1273;97927;-75
2024/02/12 10:45:58;;;;;;;4.90;3.90;;;;;;;9.43;99.61;98305.02;102249;1270;112316;-75
2024/02/12 10:48:27;;;;;;;4.00;3.30;;;;;;;9.42;99.46;98307.64;102050;1272;139856;-74
2024/02/12 10:50:57;;;;;;;5.00;3.60;;;;;;;9.45;99.81;98309.55;102646;1270;96555;-74
2024/02/12 10:53:26;;;;;;;4.90;3.60;;;;;;;9.48;99.88;98307.66;102041;1273;139969;-73
2024/02/12 10:55:54;;;;;;;4.10;3.50;;;;;;;9.52;99.87;98313.83;102179;1271;97874;-75
2024/02/12 10:58:21;;;;;;;4.90;3.60;;;;;;;9.55;99.19;98317.33;102052;1272;140437;-72
2024/02/12 11:00:57;;;;;;;5.90;3.80;;;;;;;9.56;99.10;98316.55;102154;1276;106807;-72
2024/02/12 11:03:37;;;;;;;4.50;3.80;;;;;;;9.62;99.20;98314.96;101871;1270;97928;-72
2024/02/12 11:06:10;;;;;;;4.20;3.50;;;;;;;9.65;99.10;98325.02;101857;1270;138362;-73
2024/02/12 11:08:40;;;;;;;4.50;3.80;;;;;;;9.67;98.40;98325.42;101966;1270;97775;-73
2024/02/12 11:11:15;;;;;;;5.40;3.80;;;;;;;9.61;97.84;98322.66;101951;1270;139480;-72
2024/02/12 11:13:43;;;;;;;4.60;3.90;;;;;;;9.58;98.19;98323.05;102028;1275;106764;-72
2024/02/12 11:16:15;;;;;;;4.20;3.80;;;;;;;9.62;98.63;98325.17;101966;1270;97820;-72
2024/02/12 11:18:43;;;;;;;5.10;3.90;;;;;;;9.63;98.01;98327.25;102046;1270;107183;-72
2024/02/12 11:21:16;;;;;;;6.90;3.80;;;;;;;9.61;97.88;98326.15;101893;1273;97785;-72
2024/02/12 11:23:46;;;;;;;4.70;3.50;;;;;;;9.61;98.09;98329.08;101822;1270;138358;-75
2024/02/12 11:26:14;;;;;;;3.60;3.30;;;;;;;9.60;97.64;98330.70;102117;1273;107972;-74
2024/02/12 11:28:47;;;;;;;7.70;4.30;;;;;;;9.61;98.12;98329.25;102356;1270;139100;-76
2024/02/12 11:31:17;;;;;;;4.20;3.70;;;;;;;9.62;97.64;98334.59;102182;1270;107409;-76
2024/02/12 11:33:44;;;;;;;4.90;3.70;;;;;;;9.61;97.46;98332.56;101994;1275;97828;-78
2024/02/12 11:36:12;;;;;;;5.50;3.80;;;;;;;9.61;97.80;98334.30;102087;1270;138322;-78
2024/02/12 11:38:51;;;;;;;5.30;3.60;;;;;;;9.64;98.02;98337.26;102103;1276;108110;-79
2024/02/12 11:41:18;;;;;;;5.60;3.50;;;;;;;9.70;97.96;98336.21;102070;1270;138465;-81
2024/02/12 11:43:46;;;;;;;6.20;3.70;;;;;;;9.73;97.71;98334.85;102179;1270;107680;-77
2024/02/12 11:46:15;;;;;;;4.90;4.20;;;;;;;9.71;97.36;98330.09;102070;1270;98563;-80
2024/02/12 11:48:43;;;;;;;6.40;4.50;;;;;;;9.72;97.04;98329.67;102206;1270;111621;-77
2024/02/12 11:51:10;;;;;;;5.50;4.20;;;;;;;9.70;97.17;98333.77;102276;1270;107648;-80
2024/02/12 11:53:40;;;;;;;7.20;4.50;;;;;;;9.72;97.12;98339.77;102178;1269;139730;-83
2024/02/12 11:56:09;;;;;;;6.60;4.10;;;;;;;9.72;96.96;98339.05;102342;1269;107664;-80
2024/02/12 11:58:37;;;;;;;5.00;4.40;;;;;;;9.69;96.58;98340.05;102163;1270;137625;-78
2024/02/12 12:01:04;;;;;;;4.90;4.10;;;;;;;9.69;97.11;98339.19;102368;1270;111690;-78
2024/02/12 12:03:33;;;;;;;5.50;4.30;;;;;;;9.69;96.71;98345.28;102263;1272;108858;-75
2024/02/12 12:06:06;;;;;;;5.90;5.10;;;;;;;9.65;96.77;98342.55;102108;1273;139019;-78
2024/02/12 12:08:35;;;;;;;5.50;4.80;;;;;;;9.67;97.33;98347.09;102258;1270;108254;-78
2024/02/12 12:11:07;;;;;;;7.60;4.60;;;;;;;9.76;97.48;98346.62;102169;1273;138891;-78
2024/02/12 12:13:35;;;;;;;6.00;4.80;;;;;;;9.83;97.37;98347.25;102193;1273;110844;-77
2024/02/12 12:16:03;;;;;;;8.20;5.30;;;;;;;9.84;96.78;98349.23;102317;1271;107380;-76
2024/02/12 12:18:32;;;;;;;8.30;5.20;;;;;;;9.84;96.95;98348.55;102163;1271;137638;-79
2024/02/12 12:21:39;;;;;;;6.60;5.40;;;;;;;9.84;96.70;98354.30;102340;1270;107352;-78
2024/02/12 12:24:11;;;;;;;5.90;4.50;;;;;;;9.78;96.85;98355.01;101790;1270;139630;-81
2024/02/12 12:26:41;;;;;;;5.50;4.50;;;;;;;9.77;96.66;98358.18;102305;1269;110530;-82
2024/02/12 12:29:08;;;;;;;9.90;5.00;;;;;;;9.77;96.69;98355.60;102192;1270;138432;-83
2024/02/12 12:31:36;;;;;;;5.30;4.60;;;;;;;9.79;96.97;98355.10;102176;1267;97830;-80
2024/02/12 12:34:06;;;;;;;7.10;4.70;;;;;;;9.84;97.08;98357.42;102280;1270;109011;-83
2024/02/12 12:36:34;;;;;;;6.60;5.00;;;;;;;9.89;97.11;98361.64;102228;1273;138041;-76
2024/02/12 12:39:03;;;;;;;5.70;4.60;;;;;;;9.96;97.10;98361.19;103231;1270;111055;-84
2024/02/12 12:41:32;;;;;;;6.50;5.00;;;;;;;9.99;96.70;98362.05;102169;1270;137824;-85
2024/02/12 12:43:59;;;;;;;6.10;4.80;;;;;;;10.05;96.83;98361.88;102331;1272;98380;-85
2024/02/12 12:46:27;;;;;;;5.90;4.70;;;;;;;10.08;96.43;98363.61;102264;1273;136904;-83
2024/02/12 12:48:54;;;;;;;5.50;4.70;;;;;;;10.15;96.63;98369.11;102314;1273;97825;-77
2024/02/12 12:51:22;;;;;;;6.50;4.50;;;;;;;10.15;96.09;98366.46;102325;1271;111133;-80
2024/02/12 12:53:49;;;;;;;6.30;4.40;;;;;;;10.19;95.80;98366.73;102245;1270;139296;-79
2024/02/12 12:56:16;;;;;;;6.00;4.50;;;;;;;10.16;95.39;98365.55;102382;1271;96930;-82
2024/02/12 12:58:44;;;;;;;6.70;4.60;;;;;;;10.18;95.65;98372.36;102186;1270;138654;-80
2024/02/12 13:01:12;;;;;;;7.30;4.70;;;;;;;10.22;95.63;98373.36;102312;1270;97800;-80
2024/02/12 13:03:40;;;;;;;7.00;4.70;;;;;;;10.17;94.75;98376.27;102337;1273;112475;-82
2024/02/12 13:06:08;;;;;;;5.90;5.20;;;;;;;10.08;94.71;98382.20;102211;1270;138193;-84
2024/02/12 13:08:35;;;;;;;6.30;5.00;;;;;;;10.00;94.67;98382.34;102070;1270;98375;-77
2024/02/12 13:11:02;;;;;;;6.80;5.00;;;;;;;9.94;94.56;98386.67;102172;1270;139646;-77
2024/02/12 13:13:33;;;;;;;7.10;4.90;;;;;;;9.87;94.69;98388.99;102189;1270;97838;-77
2024/02/12 13:16:03;;;;;;;6.30;4.70;;;;;;;9.83;94.97;98389.23;102252;1270;111395;-77
2024/02/12 13:18:30;;;;;;;5.90;4.70;;;;;;;9.75;95.06;98381.05;102127;1270;138467;-78
2024/02/12 13:20:58;;;;;;;7.30;4.90;;;;;;;9.82;95.23;98391.21;102298;1269;99004;-79
2024/02/12 13:23:26;;;;;;;5.40;4.80;;;;;;;9.83;95.41;98386.45;102089;1270;137879;-80
2024/02/12 13:25:54;;;;;;;6.30;5.00;;;;;;;9.87;95.72;98393.85;102216;1269;97921;-79
2024/02/12 13:28:22;;;;;;;6.00;4.80;;;;;;;9.89;95.40;98391.63;102332;1270;110839;-78
2024/02/12 13:30:51;;;;;;;7.40;5.50;;;;;;;9.88;95.37;98395.56;102187;1270;106979;-78
2024/02/12 13:33:19;;;;;;;6.70;5.50;;;;;;;9.88;95.53;98394.66;102200;1273;98890;-79
2024/02/12 13:35:49;;;;;;;7.60;5.50;;;;;;;9.86;95.30;98397.88;102170;1271;138814;-78
2024/02/12 13:38:18;;;;;;;5.80;5.10;;;;;;;9.83;95.28;98394.23;102260;1270;97840;-77
2024/02/12 13:40:46;;;;;;;6.60;5.70;;;;;;;9.79;95.05;98399.35;102070;1272;139899;-77
2024/02/12 13:43:13;;;;;;;7.10;5.60;;;;;;;9.74;94.90;98399.68;101973;1270;107739;-77
2024/02/12 13:45:43;;;;;;;8.60;6.10;;;;;;;9.69;95.06;98403.59;102038;1273;98490;-76
2024/02/12 13:48:11;;;;;;;6.50;5.50;;;;;;;9.65;95.15;98409.89;101829;1270;138276;-77
2024/02/12 13:50:39;;;;;;;6.60;5.90;;;;;;;9.59;94.97;98413.04;101976;1270;97697;-73
2024/02/12 13:53:07;;;;;;;7.00;5.30;;;;;;;9.54;95.35;98416.44;101874;1270;138397;-75
2024/02/12 13:55:37;;;;;;;6.60;5.30;;;;;;;9.48;95.25;98416.45;102015;1270;108103;-73
2024/02/12 13:58:04;;;;;;;6.50;5.80;;;;;;;9.41;95.21;98420.48;102208;1271;97928;-73
2024/02/12 14:00:32;;;;;;;6.90;6.20;;;;;;;9.33;95.54;98422.27;102165;1270;137940;-75
2024/02/12 14:03:02;;;;;;;6.60;5.80;;;;;;;9.27;95.87;98421.60;102219;1270;97735;-75
2024/02/12 14:05:30;;;;;;;7.60;5.80;;;;;;;9.22;96.22;98421.17;102192;1273;137828;-75
2024/02/12 14:07:57;;;;;;;7.80;5.60;;;;;;;9.21;96.52;98427.00;102196;1270;107785;-78
2024/02/12 14:10:26;;;;;;;9.00;6.30;;;;;;;9.19;96.75;98424.53;102171;1270;100342;-77
2024/02/12 14:12:57;;;;;;;7.90;5.80;;;;;;;9.16;96.75;98423.81;102144;1270;107001;-76
2024/02/12 14:15:26;;;;;;;11.10;5.70;;;;;;;9.14;96.95;98426.85;102080;1270;97739;-77
2024/02/12 14:18:13;;;;;;;7.20;5.50;;;;;;;9.11;96.97;98423.67;102014;1270;138447;-76
2024/02/12 14:20:40;;;;;;;7.00;5.50;;;;;;;9.13;97.19;98430.70;101951;1269;128310;-77
2024/02/12 14:23:10;;;;;;;8.20;5.40;;;;;;;9.15;97.34;98436.33;102402;1270;138967;-77
2024/02/12 14:25:38;;;;;;;6.80;5.40;;;;;;;9.19;97.57;98438.20;103502;1268;106390;-74
2024/02/12 14:28:06;;;;;;;9.60;6.00;;;;;;;9.22;97.18;98442.37;102223;1269;97762;-74
2024/02/12 14:30:33;;;;;;;7.90;6.00;;;;;;;9.23;97.07;98445.61;102086;1273;138558;-76
2024/02/12 14:33:01;;;;;;;7.50;5.70;;;;;;;9.21;97.04;98443.28;102240;1273;106255;-77
2024/02/12 14:35:34;;;;;;;10.40;5.60;;;;;;;9.27;97.22;98446.59;101998;1271;138651;-72
2024/02/12 14:38:02;;;;;;;8.20;6.20;;;;;;;9.25;96.51;98449.80;102236;1273;106899;-74
2024/02/12 14:40:30;;;;;;;8.40;5.80;;;;;;;9.20;95.96;98449.72;102035;1270;139416;-72
2024/02/12 14:42:57;;;;;;;9.60;6.00;;;;;;;9.12;95.88;98449.32;102135;1273;110830;-76
2024/02/12 14:45:28;;;;;;;9.40;5.90;;;;;;;9.15;96.41;98454.36;102137;1272;107201;-74
2024/02/12 14:47:59;;;;;;;7.10;6.00;;;;;;;9.15;96.51;98456.79;102155;1270;138896;-74
2024/02/12 14:50:27;;;;;;;6.90;5.70;;;;;;;9.17;96.68;98461.02;102155;1268;107508;-73
2024/02/12 14:52:55;;;;;;;6.60;5.40;;;;;;;9.15;96.46;98459.88;102144;1272;138799;-74
2024/02/12 14:55:22;;;;;;;6.70;5.70;;;;;;;9.15;96.37;98462.00;102297;1272;111193;-74
2024/02/12 14:57:50;;;;;;;7.50;5.50;;;;;;;9.12;96.44;98459.91;102070;1270;106875;-75
2024/02/12 15:00:19;;;;;;;8.70;6.30;;;;;;;9.12;96.55;98460.77;102144;1270;138639;-74
2024/02/12 15:02:49;;;;;;;8.00;6.00;;;;;;;9.09;96.33;98463.52;102180;1270;109051;-75
2024/02/12 15:05:26;;;;;;;6.70;5.00;;;;;;;9.06;96.28;98468.67;101903;1269;137627;-73
2024/02/12 15:07:59;;;;;;;6.80;5.80;;;;;;;9.05;96.49;98469.06;102013;1270;112307;-75
2024/02/12 15:10:35;;;;;;;6.60;5.40;;;;;;;9.03;96.36;98472.34;102122;1270;107294;-73
2024/02/12 15:13:03;;;;;;;9.10;5.50;;;;;;;8.99;96.42;98474.62;102144;1270;97873;-71
2024/02/12 15:15:32;;;;;;;8.80;6.40;;;;;;;9.00;96.82;98483.08;102020;1269;107962;-78
2024/02/12 15:17:59;;;;;;;6.70;5.00;;;;;;;8.97;96.46;98480.45;102099;1270;138492;-78
2024/02/12 15:20:32;;;;;;;6.40;4.70;;;;;;;8.95;96.29;98489.38;102136;1271;112669;-78
2024/02/12 15:23:01;;;;;;;11.60;7.20;;;;;;;8.93;96.53;98491.39;103010;1270;138523;-78
2024/02/12 15:25:30;;;;;;;9.40;7.30;;;;;;;8.93;96.45;98495.21;102261;1270;97924;-78
2024/02/12 15:28:01;;;;;;;11.40;6.20;;;;;;;8.92;96.34;98494.44;102172;1273;109107;-78
2024/02/12 15:30:31;;;;;;;9.10;7.10;;;;;;;8.93;96.29;98502.83;103579;1270;139169;-78
2024/02/12 15:32:58;;;;;;;8.00;6.60;;;;;;;8.94;96.28;98505.08;103699;1270;111411;-79
2024/02/12 15:35:26;;;;;;;8.20;6.10;;;;;;;8.92;96.14;98505.70;103497;1270;137929;-79
2024/02/12 15:37:57;;;;;;;7.30;6.00;;;;;;;8.90;96.05;98507.90;103501;1270;98328;-83
2024/02/12 15:40:24;;;;;;;9.30;6.60;;;;;;;8.87;95.92;98512.02;102046;1272;107286;-84
2024/02/12 15:42:54;;;;;;;8.20;6.80;;;;;;;8.85;96.11;98513.16;102284;1270;97723;-83
2024/02/12 15:45:23;;;;;;;8.00;6.30;;;;;;;8.85;96.13;98519.24;102236;1273;110512;-84
2024/02/12 15:47:54;;;;;;;8.40;6.60;;;;;;;8.87;96.43;98526.04;102212;1269;138464;-85
2024/02/12 15:50:25;;;;;;;9.60;7.50;;;;;;;8.87;96.22;98531.08;102304;1273;98365;-84
2024/02/12 15:52:53;;;;;;;8.80;7.00;;;;;;;8.86;96.05;98530.80;102243;1272;137373;-85
2024/02/12 15:55:23;;;;;;;10.80;7.10;;;;;;;8.85;96.16;98534.85;102275;1271;97847;-85
2024/02/12 15:57:53;;;;;;;8.40;6.80;;;;;;;8.85;96.05;98532.75;102223;1270;110435;-85
2024/02/12 16:00:25;;;;;;;10.10;6.70;;;;;;;8.84;96.16;98537.66;102225;1270;138489;-85
2024/02/12 16:02:56;;;;;;;8.60;6.60;;;;;;;8.83;95.89;98540.33;102275;1270;99649;-85
2024/02/12 16:06:00;;;;;;;10.20;8.20;;;;;;;8.82;95.85;98546.81;102204;1270;138214;-85
2024/02/12 16:08:29;;;;;;;8.90;6.30;;;;;;;8.82;95.64;98546.81;102278;1270;97809;-85
2024/02/12 16:10:59;;;;;;;11.40;7.40;;;;;;;8.79;95.72;98551.25;102162;1270;139119;-84
2024/02/12 16:13:27;;;;;;;14.80;8.40;;;;;;;8.78;95.93;98555.08;102192;1270;107533;-84
2024/02/12 16:15:55;;;;;;;13.10;8.70;;;;;;;8.80;96.08;98561.44;102096;1275;98389;-84
2024/02/12 16:18:22;;;;;;;10.80;7.10;;;;;;;8.80;96.21;98562.83;102103;1270;138611;-83
2024/02/12 16:20:49;;;;;;;12.10;7.10;;;;;;;8.85;96.43;98566.19;102262;1273;97805;-83
2024/02/12 16:23:21;;;;;;;7.50;6.70;;;;;;;8.89;96.36;98570.52;102225;1270;138493;-83
2024/02/12 16:25:48;;;;;;;10.20;7.00;;;;;;;8.89;96.39;98569.80;102268;1270;107097;-82
2024/02/12 16:28:43;;;;;;;11.30;7.50;;;;;;;8.90;96.13;98570.61;102205;1270;97695;-82
2024/02/12 16:32:11;;;;;;;10.20;7.50;;;;;;;8.90;95.90;98573.75;102251;1269;109270;-82
2024/02/12 16:35:13;;;;;;;11.50;7.10;;;;;;;8.91;95.60;98574.36;102201;1269;139845;-82
2024/02/12 16:38:11;;;;;;;11.40;7.50;;;;;;;8.93;95.58;98577.72;102455;1276;111842;-82
2024/02/12 16:40:45;;;;;;;12.20;7.40;;;;;;;8.95;95.49;98582.83;102091;1271;140943;-82
2024/02/12 16:43:34;;;;;;;12.40;7.10;;;;;;;8.98;95.35;98587.19;102345;1270;97725;-82
2024/02/12 16:46:15;;;;;;;10.80;7.80;;;;;;;8.98;94.87;98591.69;102293;1271;107424;-83
2024/02/12 16:49:14;;;;;;;;;;;;;;;8.97;94.72;98600.59;102162;1270;98600;-81
2024/02/12 16:51:49;;;;;;;12.80;7.50;;;;;;;8.92;94.53;98605.16;102284;1270;111260;-81
2024/02/12 16:54:29;;;;;;;9.30;7.50;;;;;;;8.88;94.95;98603.30;102291;1271;140920;-83
2024/02/12 16:56:59;;;;;;;9.80;7.10;;;;;;;8.87;95.20;98610.82;102269;1273;97831;-83
2024/02/12 16:59:51;;;;;;;8.60;6.70;;;;;;;8.80;95.10;98612.20;102151;1270;138363;-83
2024/02/12 17:02:54;;;;;;;9.80;6.60;;;;;;;8.75;95.37;98613.33;102192;1274;98569;-83
2024/02/12 17:05:46;;;;;;;8.10;6.40;;;;;;;8.69;95.56;98619.88;102108;1283;138536;-84
2024/02/12 17:08:32;;;;;;;8.80;6.90;;;;;;;8.65;95.65;98617.30;102064;1272;107646;-85
2024/02/12 17:11:04;;;;;;;8.80;7.00;;;;;;;8.65;95.75;98623.38;102163;1273;138916;-75
2024/02/12 17:14:04;;;;;;;8.10;6.20;;;;;;;8.65;95.63;98621.80;102063;1275;107534;-81
2024/02/12 17:16:53;;;;;;;8.60;6.60;;;;;;;8.65;95.05;98626.15;101950;1269;139581;-80
2024/02/12 17:19:40;;;;;;;8.80;6.30;;;;;;;8.62;94.63;98631.35;102120;1273;112280;-81
2024/02/12 17:22:11;;;;;;;7.40;5.00;;;;;;;8.57;94.23;98631.54;102098;1270;107865;-82